sensor_id;sensor_type;location;lat;lon;timestamp;temperature;humidity
14577;DHT22;7375;46.072;14.470;2022-08-16T00:00:23;24.80;60.70
14577;DHT22;7375;46.072;14.470;2022-08-16T00:02:52;24.80;60.70
14577;DHT22;7375;46.072;14.470;2022-08-16T00:05:19;24.80;60.70
14577;DHT22;7375;46.072;14.470;2022-08-16T00:07:47;24.80;60.70
14577;DHT22;7375;46.072;14.470;2022-08-16T00:10:14;24.80;60.70
14577;DHT22;7375;46.072;14.470;2022-08-16T00:12:43;24.80;60.70
14577;DHT22;7375;46.072;14.470;2022-08-16T00:15:11;24.70;60.70
14577;DHT22;7375;46.072;14.470;2022-08-16T00:17:38;24.70;60.70
14577;DHT22;7375;46.072;14.470;2022-08-16T00:20:08;24.70;60.80
14577;DHT22;7375;46.072;14.470;2022-08-16T00:22:39;24.70;60.70
14577;DHT22;7375;46.072;14.470;2022-08-16T00:25:07;24.70;60.80
14577;DHT22;7375;46.072;14.470;2022-08-16T00:27:34;24.70;60.80
14577;DHT22;7375;46.072;14.470;2022-08-16T00:30:04;24.70;60.80
14577;DHT22;7375;46.072;14.470;2022-08-16T00:32:31;24.70;60.90
14577;DHT22;7375;46.072;14.470;2022-08-16T00:34:58;24.70;60.90
14577;DHT22;7375;46.072;14.470;2022-08-16T00:37:25;24.70;60.90
14577;DHT22;7375;46.072;14.470;2022-08-16T00:39:52;24.70;60.90
14577;DHT22;7375;46.072;14.470;2022-08-16T00:42:22;24.70;60.90
14577;DHT22;7375;46.072;14.470;2022-08-16T00:44:50;24.70;61.00
14577;DHT22;7375;46.072;14.470;2022-08-16T00:47:19;24.60;60.90
14577;DHT22;7375;46.072;14.470;2022-08-16T00:49:47;24.70;61.00
14577;DHT22;7375;46.072;14.470;2022-08-16T00:52:14;24.60;60.90
14577;DHT22;7375;46.072;14.470;2022-08-16T00:54:41;24.60;60.90
14577;DHT22;7375;46.072;14.470;2022-08-16T00:57:12;24.60;61.00
14577;DHT22;7375;46.072;14.470;2022-08-16T00:59:39;24.60;61.00
14577;DHT22;7375;46.072;14.470;2022-08-16T01:02:07;24.60;61.00
14577;DHT22;7375;46.072;14.470;2022-08-16T01:04:35;24.60;61.00
14577;DHT22;7375;46.072;14.470;2022-08-16T01:07:03;24.60;61.00
14577;DHT22;7375;46.072;14.470;2022-08-16T01:09:31;24.60;61.10
14577;DHT22;7375;46.072;14.470;2022-08-16T01:11:58;24.60;61.10
14577;DHT22;7375;46.072;14.470;2022-08-16T01:14:27;24.60;61.10
14577;DHT22;7375;46.072;14.470;2022-08-16T01:16:58;24.60;61.10
14577;DHT22;7375;46.072;14.470;2022-08-16T01:19:28;24.60;61.10
14577;DHT22;7375;46.072;14.470;2022-08-16T01:22:00;24.60;61.10
14577;DHT22;7375;46.072;14.470;2022-08-16T01:24:30;24.60;61.20
14577;DHT22;7375;46.072;14.470;2022-08-16T01:27:04;24.60;61.20
14577;DHT22;7375;46.072;14.470;2022-08-16T01:29:33;24.60;61.20
14577;DHT22;7375;46.072;14.470;2022-08-16T01:32:00;24.60;61.20
14577;DHT22;7375;46.072;14.470;2022-08-16T01:34:27;24.50;61.10
14577;DHT22;7375;46.072;14.470;2022-08-16T01:36:56;24.50;61.20
14577;DHT22;7375;46.072;14.470;2022-08-16T01:39:23;24.50;61.20
14577;DHT22;7375;46.072;14.470;2022-08-16T01:41:52;24.50;61.20
14577;DHT22;7375;46.072;14.470;2022-08-16T01:44:19;24.50;61.20
14577;DHT22;7375;46.072;14.470;2022-08-16T01:46:49;24.50;61.20
14577;DHT22;7375;46.072;14.470;2022-08-16T01:49:19;24.50;61.20
14577;DHT22;7375;46.072;14.470;2022-08-16T01:51:47;24.50;61.20
14577;DHT22;7375;46.072;14.470;2022-08-16T01:54:16;24.50;61.20
14577;DHT22;7375;46.072;14.470;2022-08-16T01:56:43;24.50;61.30
14577;DHT22;7375;46.072;14.470;2022-08-16T01:59:12;24.50;61.30
14577;DHT22;7375;46.072;14.470;2022-08-16T02:01:39;24.50;61.30
14577;DHT22;7375;46.072;14.470;2022-08-16T02:04:06;24.50;61.30
14577;DHT22;7375;46.072;14.470;2022-08-16T02:06:33;24.50;61.30
14577;DHT22;7375;46.072;14.470;2022-08-16T02:09:05;24.50;61.30
14577;DHT22;7375;46.072;14.470;2022-08-16T02:11:33;24.50;61.30
14577;DHT22;7375;46.072;14.470;2022-08-16T02:14:00;24.50;61.30
14577;DHT22;7375;46.072;14.470;2022-08-16T02:16:28;24.50;61.40
14577;DHT22;7375;46.072;14.470;2022-08-16T02:18:55;24.50;61.40
14577;DHT22;7375;46.072;14.470;2022-08-16T02:21:22;24.50;61.40
14577;DHT22;7375;46.072;14.470;2022-08-16T02:23:50;24.50;61.40
14577;DHT22;7375;46.072;14.470;2022-08-16T02:26:18;24.50;61.50
14577;DHT22;7375;46.072;14.470;2022-08-16T02:28:44;24.50;61.40
14577;DHT22;7375;46.072;14.470;2022-08-16T02:31:12;24.50;61.50
14577;DHT22;7375;46.072;14.470;2022-08-16T02:33:41;24.50;61.50
14577;DHT22;7375;46.072;14.470;2022-08-16T02:36:09;24.50;61.50
14577;DHT22;7375;46.072;14.470;2022-08-16T02:38:39;24.50;61.50
14577;DHT22;7375;46.072;14.470;2022-08-16T02:41:06;24.40;61.40
14577;DHT22;7375;46.072;14.470;2022-08-16T02:43:34;24.40;61.40
14577;DHT22;7375;46.072;14.470;2022-08-16T02:46:04;24.40;61.50
14577;DHT22;7375;46.072;14.470;2022-08-16T02:48:32;24.40;62.00
14577;DHT22;7375;46.072;14.470;2022-08-16T02:51:02;24.40;61.50
14577;DHT22;7375;46.072;14.470;2022-08-16T02:53:30;24.40;62.10
14577;DHT22;7375;46.072;14.470;2022-08-16T02:55:57;24.40;61.50
14577;DHT22;7375;46.072;14.470;2022-08-16T02:58:24;24.40;61.50
14577;DHT22;7375;46.072;14.470;2022-08-16T03:00:51;24.40;61.50
14577;DHT22;7375;46.072;14.470;2022-08-16T03:03:21;24.40;61.50
14577;DHT22;7375;46.072;14.470;2022-08-16T03:05:48;24.40;61.50
14577;DHT22;7375;46.072;14.470;2022-08-16T03:08:17;24.40;61.60
14577;DHT22;7375;46.072;14.470;2022-08-16T03:10:44;24.40;61.60
14577;DHT22;7375;46.072;14.470;2022-08-16T03:13:11;24.40;61.60
14577;DHT22;7375;46.072;14.470;2022-08-16T03:15:38;24.40;62.20
14577;DHT22;7375;46.072;14.470;2022-08-16T03:18:07;24.40;61.60
14577;DHT22;7375;46.072;14.470;2022-08-16T03:20:35;24.40;61.60
14577;DHT22;7375;46.072;14.470;2022-08-16T03:23:03;24.40;61.70
14577;DHT22;7375;46.072;14.470;2022-08-16T03:25:32;24.40;61.60
14577;DHT22;7375;46.072;14.470;2022-08-16T03:27:59;24.40;61.60
14577;DHT22;7375;46.072;14.470;2022-08-16T03:30:27;24.40;61.70
14577;DHT22;7375;46.072;14.470;2022-08-16T03:32:54;24.40;61.70
14577;DHT22;7375;46.072;14.470;2022-08-16T03:35:22;24.40;61.70
14577;DHT22;7375;46.072;14.470;2022-08-16T03:37:53;24.40;61.70
14577;DHT22;7375;46.072;14.470;2022-08-16T03:40:20;24.40;61.70
14577;DHT22;7375;46.072;14.470;2022-08-16T03:42:49;24.40;61.70
14577;DHT22;7375;46.072;14.470;2022-08-16T03:45:16;24.40;61.70
14577;DHT22;7375;46.072;14.470;2022-08-16T03:47:44;24.40;61.70
14577;DHT22;7375;46.072;14.470;2022-08-16T03:50:12;24.30;61.60
14577;DHT22;7375;46.072;14.470;2022-08-16T03:52:39;24.30;61.60
14577;DHT22;7375;46.072;14.470;2022-08-16T03:55:06;24.30;61.60
14577;DHT22;7375;46.072;14.470;2022-08-16T03:57:36;24.30;61.60
14577;DHT22;7375;46.072;14.470;2022-08-16T04:00:25;24.40;61.70
14577;DHT22;7375;46.072;14.470;2022-08-16T04:02:53;24.30;61.60
14577;DHT22;7375;46.072;14.470;2022-08-16T04:05:21;24.30;61.60
14577;DHT22;7375;46.072;14.470;2022-08-16T04:07:48;24.30;61.60
14577;DHT22;7375;46.072;14.470;2022-08-16T04:10:15;24.30;61.60
14577;DHT22;7375;46.072;14.470;2022-08-16T04:12:44;24.30;61.50
14577;DHT22;7375;46.072;14.470;2022-08-16T04:15:13;24.40;61.60
14577;DHT22;7375;46.072;14.470;2022-08-16T04:17:41;24.40;61.70
14577;DHT22;7375;46.072;14.470;2022-08-16T04:20:09;24.40;61.60
14577;DHT22;7375;46.072;14.470;2022-08-16T04:22:38;24.40;61.60
14577;DHT22;7375;46.072;14.470;2022-08-16T04:25:05;24.40;61.60
14577;DHT22;7375;46.072;14.470;2022-08-16T04:27:32;24.40;61.60
14577;DHT22;7375;46.072;14.470;2022-08-16T04:29:59;24.40;61.50
14577;DHT22;7375;46.072;14.470;2022-08-16T04:32:27;24.40;61.60
14577;DHT22;7375;46.072;14.470;2022-08-16T04:34:57;24.40;61.50
14577;DHT22;7375;46.072;14.470;2022-08-16T04:37:26;24.40;61.60
14577;DHT22;7375;46.072;14.470;2022-08-16T04:39:53;24.40;61.60
14577;DHT22;7375;46.072;14.470;2022-08-16T04:42:23;24.40;61.60
14577;DHT22;7375;46.072;14.470;2022-08-16T04:45:04;24.40;61.60
14577;DHT22;7375;46.072;14.470;2022-08-16T04:47:36;24.40;61.60
14577;DHT22;7375;46.072;14.470;2022-08-16T04:50:03;24.40;61.60
14577;DHT22;7375;46.072;14.470;2022-08-16T04:52:31;24.40;61.60
14577;DHT22;7375;46.072;14.470;2022-08-16T04:54:57;24.40;61.60
14577;DHT22;7375;46.072;14.470;2022-08-16T04:57:24;24.40;61.60
14577;DHT22;7375;46.072;14.470;2022-08-16T04:59:51;24.40;61.60
14577;DHT22;7375;46.072;14.470;2022-08-16T05:02:21;24.40;61.60
14577;DHT22;7375;46.072;14.470;2022-08-16T05:04:49;24.40;61.60
14577;DHT22;7375;46.072;14.470;2022-08-16T05:07:17;24.40;61.60
14577;DHT22;7375;46.072;14.470;2022-08-16T05:09:46;24.40;61.60
14577;DHT22;7375;46.072;14.470;2022-08-16T05:12:13;24.40;61.60
14577;DHT22;7375;46.072;14.470;2022-08-16T05:14:42;24.40;61.60
14577;DHT22;7375;46.072;14.470;2022-08-16T05:17:09;24.40;61.60
14577;DHT22;7375;46.072;14.470;2022-08-16T05:19:35;24.40;61.60
14577;DHT22;7375;46.072;14.470;2022-08-16T05:22:04;24.40;61.60
14577;DHT22;7375;46.072;14.470;2022-08-16T05:24:31;24.40;61.60
14577;DHT22;7375;46.072;14.470;2022-08-16T05:27:00;24.40;61.60
14577;DHT22;7375;46.072;14.470;2022-08-16T05:29:30;24.40;61.60
14577;DHT22;7375;46.072;14.470;2022-08-16T05:31:57;24.40;61.60
14577;DHT22;7375;46.072;14.470;2022-08-16T05:34:23;24.40;61.60
14577;DHT22;7375;46.072;14.470;2022-08-16T05:36:50;24.40;61.60
14577;DHT22;7375;46.072;14.470;2022-08-16T05:39:23;24.40;61.60
14577;DHT22;7375;46.072;14.470;2022-08-16T05:41:50;24.40;61.60
14577;DHT22;7375;46.072;14.470;2022-08-16T05:44:18;24.40;61.60
14577;DHT22;7375;46.072;14.470;2022-08-16T05:46:45;24.40;61.60
14577;DHT22;7375;46.072;14.470;2022-08-16T05:49:12;24.40;61.50
14577;DHT22;7375;46.072;14.470;2022-08-16T05:51:41;24.40;61.50
14577;DHT22;7375;46.072;14.470;2022-08-16T05:54:08;24.40;61.50
14577;DHT22;7375;46.072;14.470;2022-08-16T05:56:37;24.40;61.50
14577;DHT22;7375;46.072;14.470;2022-08-16T05:59:04;24.40;61.50
14577;DHT22;7375;46.072;14.470;2022-08-16T06:01:31;24.40;61.50
14577;DHT22;7375;46.072;14.470;2022-08-16T06:03:58;24.40;61.50
14577;DHT22;7375;46.072;14.470;2022-08-16T06:06:25;24.40;61.50
14577;DHT22;7375;46.072;14.470;2022-08-16T06:08:52;24.40;61.50
14577;DHT22;7375;46.072;14.470;2022-08-16T06:11:19;24.40;61.50
14577;DHT22;7375;46.072;14.470;2022-08-16T06:13:47;24.40;61.50
14577;DHT22;7375;46.072;14.470;2022-08-16T06:16:14;24.40;61.50
14577;DHT22;7375;46.072;14.470;2022-08-16T06:18:43;24.40;61.50
14577;DHT22;7375;46.072;14.470;2022-08-16T06:21:10;24.40;61.40
14577;DHT22;7375;46.072;14.470;2022-08-16T06:23:37;24.40;61.40
14577;DHT22;7375;46.072;14.470;2022-08-16T06:26:06;24.40;61.40
14577;DHT22;7375;46.072;14.470;2022-08-16T06:28:34;24.40;61.40
14577;DHT22;7375;46.072;14.470;2022-08-16T06:31:02;24.40;61.40
14577;DHT22;7375;46.072;14.470;2022-08-16T06:33:29;24.40;61.40
14577;DHT22;7375;46.072;14.470;2022-08-16T06:35:56;24.50;61.40
14577;DHT22;7375;46.072;14.470;2022-08-16T06:38:23;24.50;61.40
14577;DHT22;7375;46.072;14.470;2022-08-16T06:40:50;24.50;61.40
14577;DHT22;7375;46.072;14.470;2022-08-16T06:43:17;24.50;61.40
14577;DHT22;7375;46.072;14.470;2022-08-16T06:45:45;24.50;61.40
14577;DHT22;7375;46.072;14.470;2022-08-16T06:48:14;24.50;61.40
14577;DHT22;7375;46.072;14.470;2022-08-16T06:50:41;24.50;61.40
14577;DHT22;7375;46.072;14.470;2022-08-16T06:53:08;24.50;61.40
14577;DHT22;7375;46.072;14.470;2022-08-16T06:55:35;24.50;61.40
14577;DHT22;7375;46.072;14.470;2022-08-16T06:58:02;24.50;61.40
14577;DHT22;7375;46.072;14.470;2022-08-16T07:00:29;24.50;61.40
14577;DHT22;7375;46.072;14.470;2022-08-16T07:02:55;24.50;61.30
14577;DHT22;7375;46.072;14.470;2022-08-16T07:05:25;24.50;61.30
14577;DHT22;7375;46.072;14.470;2022-08-16T07:07:54;24.50;61.30
14577;DHT22;7375;46.072;14.470;2022-08-16T07:10:21;24.50;61.20
14577;DHT22;7375;46.072;14.470;2022-08-16T07:12:52;24.50;61.20
14577;DHT22;7375;46.072;14.470;2022-08-16T07:15:19;24.50;61.20
14577;DHT22;7375;46.072;14.470;2022-08-16T07:17:46;24.60;61.20
14577;DHT22;7375;46.072;14.470;2022-08-16T07:20:14;24.60;61.10
14577;DHT22;7375;46.072;14.470;2022-08-16T07:22:45;24.60;61.10
14577;DHT22;7375;46.072;14.470;2022-08-16T07:25:13;24.60;61.10
14577;DHT22;7375;46.072;14.470;2022-08-16T07:27:40;24.60;61.00
14577;DHT22;7375;46.072;14.470;2022-08-16T07:30:09;24.60;60.90
14577;DHT22;7375;46.072;14.470;2022-08-16T07:32:36;24.70;60.90
14577;DHT22;7375;46.072;14.470;2022-08-16T07:35:04;24.70;60.90
14577;DHT22;7375;46.072;14.470;2022-08-16T07:37:31;24.80;60.80
14577;DHT22;7375;46.072;14.470;2022-08-16T07:39:59;24.80;60.70
14577;DHT22;7375;46.072;14.470;2022-08-16T07:42:26;24.90;60.60
14577;DHT22;7375;46.072;14.470;2022-08-16T07:44:54;25.10;60.20
14577;DHT22;7375;46.072;14.470;2022-08-16T07:47:22;25.30;59.80
14577;DHT22;7375;46.072;14.470;2022-08-16T07:49:48;25.50;59.60
14577;DHT22;7375;46.072;14.470;2022-08-16T07:52:16;25.60;59.30
14577;DHT22;7375;46.072;14.470;2022-08-16T07:54:42;25.70;59.10
14577;DHT22;7375;46.072;14.470;2022-08-16T07:57:14;25.80;58.40
14577;DHT22;7375;46.072;14.470;2022-08-16T07:59:41;25.90;58.20
14577;DHT22;7375;46.072;14.470;2022-08-16T08:02:10;26.10;57.90
14577;DHT22;7375;46.072;14.470;2022-08-16T08:04:38;26.10;57.60
14577;DHT22;7375;46.072;14.470;2022-08-16T08:07:05;26.20;57.40
14577;DHT22;7375;46.072;14.470;2022-08-16T08:09:36;26.30;57.30
14577;DHT22;7375;46.072;14.470;2022-08-16T08:12:04;26.40;57.10
14577;DHT22;7375;46.072;14.470;2022-08-16T08:14:33;26.40;56.90
14577;DHT22;7375;46.072;14.470;2022-08-16T08:16:59;26.50;56.80
14577;DHT22;7375;46.072;14.470;2022-08-16T08:19:30;26.50;56.70
14577;DHT22;7375;46.072;14.470;2022-08-16T08:22:00;26.60;56.50
14577;DHT22;7375;46.072;14.470;2022-08-16T08:24:27;26.70;56.40
14577;DHT22;7375;46.072;14.470;2022-08-16T08:26:59;26.70;56.20
14577;DHT22;7375;46.072;14.470;2022-08-16T08:29:26;26.80;56.10
14577;DHT22;7375;46.072;14.470;2022-08-16T08:31:55;26.80;56.00
14577;DHT22;7375;46.072;14.470;2022-08-16T08:34:22;26.80;56.00
14577;DHT22;7375;46.072;14.470;2022-08-16T08:36:49;26.80;55.90
14577;DHT22;7375;46.072;14.470;2022-08-16T08:39:16;26.80;55.80
14577;DHT22;7375;46.072;14.470;2022-08-16T08:41:43;26.90;55.70
14577;DHT22;7375;46.072;14.470;2022-08-16T08:44:10;26.90;55.70
14577;DHT22;7375;46.072;14.470;2022-08-16T08:46:40;27.00;55.60
14577;DHT22;7375;46.072;14.470;2022-08-16T08:49:09;27.00;55.50
14577;DHT22;7375;46.072;14.470;2022-08-16T08:51:36;27.00;55.30
14577;DHT22;7375;46.072;14.470;2022-08-16T08:54:03;27.00;55.30
14577;DHT22;7375;46.072;14.470;2022-08-16T08:56:30;27.00;55.30
14577;DHT22;7375;46.072;14.470;2022-08-16T08:58:57;27.10;55.30
14577;DHT22;7375;46.072;14.470;2022-08-16T09:01:28;27.10;55.20
14577;DHT22;7375;46.072;14.470;2022-08-16T09:03:56;27.10;55.20
14577;DHT22;7375;46.072;14.470;2022-08-16T09:06:24;27.10;55.30
14577;DHT22;7375;46.072;14.470;2022-08-16T09:08:51;27.10;55.40
14577;DHT22;7375;46.072;14.470;2022-08-16T09:11:21;27.10;55.20
14577;DHT22;7375;46.072;14.470;2022-08-16T09:13:48;27.10;55.40
14577;DHT22;7375;46.072;14.470;2022-08-16T09:16:18;27.20;55.30
14577;DHT22;7375;46.072;14.470;2022-08-16T09:18:45;27.10;55.10
14577;DHT22;7375;46.072;14.470;2022-08-16T09:21:12;27.20;55.10
14577;DHT22;7375;46.072;14.470;2022-08-16T09:23:41;27.20;55.10
14577;DHT22;7375;46.072;14.470;2022-08-16T09:26:11;27.20;55.10
14577;DHT22;7375;46.072;14.470;2022-08-16T09:28:40;27.20;55.00
14577;DHT22;7375;46.072;14.470;2022-08-16T09:31:07;27.20;54.90
14577;DHT22;7375;46.072;14.470;2022-08-16T09:33:34;27.20;54.90
14577;DHT22;7375;46.072;14.470;2022-08-16T09:36:01;27.20;54.80
14577;DHT22;7375;46.072;14.470;2022-08-16T09:38:29;27.30;54.80
14577;DHT22;7375;46.072;14.470;2022-08-16T09:40:57;27.30;54.80
14577;DHT22;7375;46.072;14.470;2022-08-16T09:43:24;27.30;54.80
14577;DHT22;7375;46.072;14.470;2022-08-16T09:45:51;27.30;54.80
14577;DHT22;7375;46.072;14.470;2022-08-16T09:48:18;27.20;54.80
14577;DHT22;7375;46.072;14.470;2022-08-16T09:50:48;27.30;54.80
14577;DHT22;7375;46.072;14.470;2022-08-16T09:53:16;27.30;54.80
14577;DHT22;7375;46.072;14.470;2022-08-16T09:55:47;27.30;54.70
14577;DHT22;7375;46.072;14.470;2022-08-16T09:58:18;27.30;54.80
14577;DHT22;7375;46.072;14.470;2022-08-16T10:00:45;27.30;54.80
14577;DHT22;7375;46.072;14.470;2022-08-16T10:03:13;27.30;54.80
14577;DHT22;7375;46.072;14.470;2022-08-16T10:05:40;27.20;54.80
14577;DHT22;7375;46.072;14.470;2022-08-16T10:08:07;27.20;55.10
14577;DHT22;7375;46.072;14.470;2022-08-16T10:10:35;27.10;55.10
14577;DHT22;7375;46.072;14.470;2022-08-16T10:13:05;27.20;55.10
14577;DHT22;7375;46.072;14.470;2022-08-16T10:15:39;27.20;55.10
14577;DHT22;7375;46.072;14.470;2022-08-16T10:18:07;27.20;55.10
14577;DHT22;7375;46.072;14.470;2022-08-16T10:20:36;27.10;55.20
14577;DHT22;7375;46.072;14.470;2022-08-16T10:23:03;27.10;55.30
14577;DHT22;7375;46.072;14.470;2022-08-16T10:25:30;27.10;55.30
14577;DHT22;7375;46.072;14.470;2022-08-16T10:27:57;27.00;55.40
14577;DHT22;7375;46.072;14.470;2022-08-16T10:30:26;27.00;55.50
14577;DHT22;7375;46.072;14.470;2022-08-16T10:32:54;27.00;55.60
14577;DHT22;7375;46.072;14.470;2022-08-16T10:35:26;27.00;55.60
14577;DHT22;7375;46.072;14.470;2022-08-16T10:37:53;27.00;55.70
14577;DHT22;7375;46.072;14.470;2022-08-16T10:40:20;26.90;55.60
14577;DHT22;7375;46.072;14.470;2022-08-16T10:42:47;26.90;55.70
14577;DHT22;7375;46.072;14.470;2022-08-16T10:45:14;26.90;55.70
14577;DHT22;7375;46.072;14.470;2022-08-16T10:47:41;26.90;55.70
14577;DHT22;7375;46.072;14.470;2022-08-16T10:50:10;26.90;55.80
14577;DHT22;7375;46.072;14.470;2022-08-16T10:52:42;26.80;55.80
14577;DHT22;7375;46.072;14.470;2022-08-16T10:55:09;26.80;55.90
14577;DHT22;7375;46.072;14.470;2022-08-16T10:57:37;26.80;56.00
14577;DHT22;7375;46.072;14.470;2022-08-16T11:00:04;26.70;56.00
14577;DHT22;7375;46.072;14.470;2022-08-16T11:02:34;26.70;56.00
14577;DHT22;7375;46.072;14.470;2022-08-16T11:05:04;26.80;56.10
14577;DHT22;7375;46.072;14.470;2022-08-16T11:07:38;26.70;56.10
14577;DHT22;7375;46.072;14.470;2022-08-16T11:10:06;26.70;56.10
14577;DHT22;7375;46.072;14.470;2022-08-16T11:12:33;26.70;56.20
14577;DHT22;7375;46.072;14.470;2022-08-16T11:15:00;26.70;56.30
14577;DHT22;7375;46.072;14.470;2022-08-16T11:17:27;26.70;56.40
14577;DHT22;7375;46.072;14.470;2022-08-16T11:19:56;26.70;56.40
14577;DHT22;7375;46.072;14.470;2022-08-16T11:22:24;26.70;56.40
14577;DHT22;7375;46.072;14.470;2022-08-16T11:24:53;26.70;56.40
14577;DHT22;7375;46.072;14.470;2022-08-16T11:27:20;26.60;56.40
14577;DHT22;7375;46.072;14.470;2022-08-16T11:29:54;26.60;56.40
14577;DHT22;7375;46.072;14.470;2022-08-16T11:32:21;26.60;56.40
14577;DHT22;7375;46.072;14.470;2022-08-16T11:34:48;26.60;56.50
14577;DHT22;7375;46.072;14.470;2022-08-16T11:37:20;26.60;56.50
14577;DHT22;7375;46.072;14.470;2022-08-16T11:39:47;26.60;56.50
14577;DHT22;7375;46.072;14.470;2022-08-16T11:42:16;26.60;56.60
14577;DHT22;7375;46.072;14.470;2022-08-16T11:44:42;26.60;56.60
14577;DHT22;7375;46.072;14.470;2022-08-16T11:47:09;26.50;56.50
14577;DHT22;7375;46.072;14.470;2022-08-16T11:49:36;26.50;56.60
14577;DHT22;7375;46.072;14.470;2022-08-16T11:52:03;26.50;56.60
14577;DHT22;7375;46.072;14.470;2022-08-16T11:54:30;26.50;56.60
14577;DHT22;7375;46.072;14.470;2022-08-16T11:56:58;26.50;56.60
14577;DHT22;7375;46.072;14.470;2022-08-16T11:59:27;26.50;56.60
14577;DHT22;7375;46.072;14.470;2022-08-16T12:01:54;26.50;56.60
14577;DHT22;7375;46.072;14.470;2022-08-16T12:04:21;26.50;56.70
14577;DHT22;7375;46.072;14.470;2022-08-16T12:06:51;26.50;56.70
14577;DHT22;7375;46.072;14.470;2022-08-16T12:09:18;26.40;56.60
14577;DHT22;7375;46.072;14.470;2022-08-16T12:11:47;26.50;56.70
14577;DHT22;7375;46.072;14.470;2022-08-16T12:14:14;26.40;56.70
14577;DHT22;7375;46.072;14.470;2022-08-16T12:16:43;26.40;56.70
14577;DHT22;7375;46.072;14.470;2022-08-16T12:19:09;26.40;56.70
14577;DHT22;7375;46.072;14.470;2022-08-16T12:21:40;26.40;56.80
14577;DHT22;7375;46.072;14.470;2022-08-16T12:24:07;26.40;56.70
14577;DHT22;7375;46.072;14.470;2022-08-16T12:26:34;26.40;56.80
14577;DHT22;7375;46.072;14.470;2022-08-16T12:29:01;26.40;56.80
14577;DHT22;7375;46.072;14.470;2022-08-16T12:31:30;26.40;56.80
14577;DHT22;7375;46.072;14.470;2022-08-16T12:33:58;26.40;56.80
14577;DHT22;7375;46.072;14.470;2022-08-16T12:36:25;26.40;56.90
14577;DHT22;7375;46.072;14.470;2022-08-16T12:38:52;26.40;56.80
14577;DHT22;7375;46.072;14.470;2022-08-16T12:41:20;26.40;56.90
14577;DHT22;7375;46.072;14.470;2022-08-16T12:43:47;26.40;56.90
14577;DHT22;7375;46.072;14.470;2022-08-16T12:46:14;26.40;57.00
14577;DHT22;7375;46.072;14.470;2022-08-16T12:48:41;26.40;57.00
14577;DHT22;7375;46.072;14.470;2022-08-16T12:51:29;26.40;57.00
14577;DHT22;7375;46.072;14.470;2022-08-16T12:53:58;26.40;57.00
14577;DHT22;7375;46.072;14.470;2022-08-16T12:56:33;26.40;57.00
14577;DHT22;7375;46.072;14.470;2022-08-16T12:59:01;26.40;57.00
14577;DHT22;7375;46.072;14.470;2022-08-16T13:01:30;26.30;56.90
14577;DHT22;7375;46.072;14.470;2022-08-16T13:03:58;26.40;57.10
14577;DHT22;7375;46.072;14.470;2022-08-16T13:06:27;26.30;57.00
14577;DHT22;7375;46.072;14.470;2022-08-16T13:08:54;26.30;57.00
14577;DHT22;7375;46.072;14.470;2022-08-16T13:11:23;26.30;57.00
14577;DHT22;7375;46.072;14.470;2022-08-16T13:13:54;26.30;57.00
14577;DHT22;7375;46.072;14.470;2022-08-16T13:16:22;26.30;57.10
14577;DHT22;7375;46.072;14.470;2022-08-16T13:18:49;26.30;57.10
14577;DHT22;7375;46.072;14.470;2022-08-16T13:21:19;26.30;57.10
14577;DHT22;7375;46.072;14.470;2022-08-16T13:23:47;26.30;57.10
14577;DHT22;7375;46.072;14.470;2022-08-16T13:26:14;26.30;57.10
14577;DHT22;7375;46.072;14.470;2022-08-16T13:28:41;26.30;57.10
14577;DHT22;7375;46.072;14.470;2022-08-16T13:31:08;26.30;57.10
14577;DHT22;7375;46.072;14.470;2022-08-16T13:33:35;26.30;57.20
14577;DHT22;7375;46.072;14.470;2022-08-16T13:36:03;26.30;57.20
14577;DHT22;7375;46.072;14.470;2022-08-16T13:38:35;26.30;57.10
14577;DHT22;7375;46.072;14.470;2022-08-16T13:41:04;26.30;57.20
14577;DHT22;7375;46.072;14.470;2022-08-16T13:43:31;26.30;57.10
14577;DHT22;7375;46.072;14.470;2022-08-16T13:45:58;26.30;57.10
14577;DHT22;7375;46.072;14.470;2022-08-16T13:48:27;26.30;57.10
14577;DHT22;7375;46.072;14.470;2022-08-16T13:50:55;26.30;57.10
14577;DHT22;7375;46.072;14.470;2022-08-16T13:53:23;26.30;57.20
14577;DHT22;7375;46.072;14.470;2022-08-16T13:55:50;26.30;57.10
14577;DHT22;7375;46.072;14.470;2022-08-16T13:58:18;26.30;57.20
14577;DHT22;7375;46.072;14.470;2022-08-16T14:00:45;26.20;57.10
14577;DHT22;7375;46.072;14.470;2022-08-16T14:03:15;26.30;57.20
14577;DHT22;7375;46.072;14.470;2022-08-16T14:05:46;26.20;57.10
14577;DHT22;7375;46.072;14.470;2022-08-16T14:08:12;26.30;57.20
14577;DHT22;7375;46.072;14.470;2022-08-16T14:10:42;26.30;57.20
14577;DHT22;7375;46.072;14.470;2022-08-16T14:13:09;26.30;57.10
14577;DHT22;7375;46.072;14.470;2022-08-16T14:18:05;26.30;57.10
14577;DHT22;7375;46.072;14.470;2022-08-16T14:20:32;26.30;57.10
14577;DHT22;7375;46.072;14.470;2022-08-16T14:23:02;26.30;57.10
14577;DHT22;7375;46.072;14.470;2022-08-16T14:25:34;26.30;57.10
14577;DHT22;7375;46.072;14.470;2022-08-16T14:28:01;26.30;57.10
14577;DHT22;7375;46.072;14.470;2022-08-16T14:30:28;26.30;57.10
14577;DHT22;7375;46.072;14.470;2022-08-16T14:32:57;26.30;57.20
14577;DHT22;7375;46.072;14.470;2022-08-16T14:35:26;26.30;57.20
14577;DHT22;7375;46.072;14.470;2022-08-16T14:37:53;26.30;57.20
14577;DHT22;7375;46.072;14.470;2022-08-16T14:40:20;26.30;57.10
14577;DHT22;7375;46.072;14.470;2022-08-16T14:43:02;26.30;57.10
14577;DHT22;7375;46.072;14.470;2022-08-16T14:45:32;26.30;57.20
14577;DHT22;7375;46.072;14.470;2022-08-16T14:47:58;26.30;57.20
14577;DHT22;7375;46.072;14.470;2022-08-16T14:50:30;26.30;57.20
14577;DHT22;7375;46.072;14.470;2022-08-16T14:52:59;26.30;57.20
14577;DHT22;7375;46.072;14.470;2022-08-16T14:55:27;26.30;57.20
14577;DHT22;7375;46.072;14.470;2022-08-16T14:57:54;26.30;57.20
14577;DHT22;7375;46.072;14.470;2022-08-16T15:00:22;26.20;57.10
14577;DHT22;7375;46.072;14.470;2022-08-16T15:02:50;26.30;57.20
14577;DHT22;7375;46.072;14.470;2022-08-16T15:05:18;26.30;57.20
14577;DHT22;7375;46.072;14.470;2022-08-16T15:07:48;26.30;57.20
14577;DHT22;7375;46.072;14.470;2022-08-16T15:10:16;26.30;57.20
14577;DHT22;7375;46.072;14.470;2022-08-16T15:12:43;26.30;57.20
14577;DHT22;7375;46.072;14.470;2022-08-16T15:15:12;26.30;57.30
14577;DHT22;7375;46.072;14.470;2022-08-16T15:17:40;26.30;57.30
14577;DHT22;7375;46.072;14.470;2022-08-16T15:20:07;26.20;57.20
14577;DHT22;7375;46.072;14.470;2022-08-16T15:22:35;26.20;57.20
14577;DHT22;7375;46.072;14.470;2022-08-16T15:25:05;26.30;57.30
14577;DHT22;7375;46.072;14.470;2022-08-16T15:27:33;26.20;57.30
14577;DHT22;7375;46.072;14.470;2022-08-16T15:30:07;26.20;57.30
14577;DHT22;7375;46.072;14.470;2022-08-16T15:32:37;26.20;57.30
14577;DHT22;7375;46.072;14.470;2022-08-16T15:35:04;26.20;57.30
14577;DHT22;7375;46.072;14.470;2022-08-16T15:37:31;26.20;57.30